Map

Track Data

SID SEASON NUMBER BASIN SUBBASIN NAME ISO_TIME NATURE LAT LON WMO_WIND WMO_PRES WMO_AGENCY TRACK_TYPE DIST2LAND LANDFALL IFLAG USA_AGENCY USA_ATCF_ID USA_LAT USA_LON USA_RECORD USA_STATUS USA_WIND USA_PRES USA_SSHS USA_R34_NE USA_R34_SE USA_R34_SW USA_R34_NW USA_R50_NE USA_R50_SE USA_R50_SW USA_R50_NW USA_R64_NE USA_R64_SE USA_R64_SW USA_R64_NW USA_POCI USA_ROCI USA_RMW USA_EYE TOKYO_LAT TOKYO_LON TOKYO_GRADE TOKYO_WIND TOKYO_PRES TOKYO_R50_DIR TOKYO_R50_LONG TOKYO_R50_SHORT TOKYO_R30_DIR TOKYO_R30_LONG TOKYO_R30_SHORT TOKYO_LAND CMA_LAT CMA_LON CMA_CAT CMA_WIND CMA_PRES HKO_LAT HKO_LON HKO_CAT HKO_WIND HKO_PRES NEWDELHI_LAT NEWDELHI_LON NEWDELHI_GRADE NEWDELHI_WIND NEWDELHI_PRES NEWDELHI_CI NEWDELHI_DP NEWDELHI_POCI REUNION_LAT REUNION_LON REUNION_TYPE REUNION_WIND REUNION_PRES REUNION_TNUM REUNION_CI REUNION_RMW REUNION_R34_NE REUNION_R34_SE REUNION_R34_SW REUNION_R34_NW REUNION_R50_NE REUNION_R50_SE REUNION_R50_SW REUNION_R50_NW REUNION_R64_NE REUNION_R64_SE REUNION_R64_SW REUNION_R64_NW BOM_LAT BOM_LON BOM_TYPE BOM_WIND BOM_PRES BOM_TNUM BOM_CI BOM_RMW BOM_R34_NE BOM_R34_SE BOM_R34_SW BOM_R34_NW BOM_R50_NE BOM_R50_SE BOM_R50_SW BOM_R50_NW BOM_R64_NE BOM_R64_SE BOM_R64_SW BOM_R64_NW BOM_ROCI BOM_POCI BOM_EYE BOM_POS_METHOD BOM_PRES_METHOD NADI_LAT NADI_LON NADI_CAT NADI_WIND NADI_PRES WELLINGTON_LAT WELLINGTON_LON WELLINGTON_WIND WELLINGTON_PRES DS824_LAT DS824_LON DS824_STAGE DS824_WIND DS824_PRES TD9636_LAT TD9636_LON TD9636_STAGE TD9636_WIND TD9636_PRES TD9635_LAT TD9635_LON TD9635_WIND TD9635_PRES TD9635_ROCI NEUMANN_LAT NEUMANN_LON NEUMANN_CLASS NEUMANN_WIND NEUMANN_PRES MLC_LAT MLC_LON MLC_CLASS MLC_WIND MLC_PRES USA_GUST BOM_GUST BOM_GUST_PER REUNION_GUST REUNION_GUST_PER USA_SEAHGT USA_SEARAD_NE USA_SEARAD_SE USA_SEARAD_SW USA_SEARAD_NW STORM_SPEED STORM_DIR
1873032S12076 1873 4 SI MM NOT_NAMED 1873-02-01 06:00:00 NR -11.8000 76.2000 reunion main 2042 2042 _____O________ -1 -11.8000 76.2000 99 9.90000 5 235
1873032S12076 1873 4 SI MM NOT_NAMED 1873-02-01 09:00:00 NR -11.9322 76.0071 main 2058 2058 _____P________ -1 -11.9322 76.0071 99 5 235
1873032S12076 1873 4 SI MM NOT_NAMED 1873-02-01 12:00:00 NR -12.0672 75.8111 main 2085 2085 _____P________ -1 -12.0672 75.8111 99 5 235
1873032S12076 1873 4 SI MM NOT_NAMED 1873-02-01 15:00:00 NR -12.2079 75.6089 main 2102 2079 _____P________ -1 -12.2079 75.6089 99 5 234
1873032S12076 1873 4 SI MM NOT_NAMED 1873-02-01 18:00:00 NR -12.3573 75.3976 main 2073 2049 _____P________ -1 -12.3573 75.3976 99 5 234
1873032S12076 1873 4 SI MM NOT_NAMED 1873-02-01 21:00:00 NR -12.5183 75.1741 main 2049 2010 _____P________ -1 -12.5183 75.1741 99 6 233
1873032S12076 1873 4 SI MM NOT_NAMED 1873-02-02 00:00:00 NR -12.6938 74.9354 main 2010 1980 _____P________ -1 -12.6938 74.9354 99 6 233
1873032S12076 1873 4 SI MM NOT_NAMED 1873-02-02 03:00:00 NR -12.8868 74.6784 main 1980 1941 _____P________ -1 -12.8868 74.6784 99 7 232
1873032S12076 1873 4 SI MM NOT_NAMED 1873-02-02 06:00:00 NR -13.1000 74.4000 reunion main 1941 1902 _____O________ -1 -13.1000 74.4000 99 9.90000 7 232
1873032S12076 1873 4 SI MM NOT_NAMED 1873-02-02 09:00:00 NR -13.3357 74.0982 main 1902 1858 _____P________ -1 -13.3357 74.0982 99 8 231
1873032S12076 1873 4 SI MM NOT_NAMED 1873-02-02 12:00:00 NR -13.5929 73.7754 main 1858 1814 _____P________ -1 -13.5929 73.7754 99 8 230
1873032S12076 1873 4 SI MM NOT_NAMED 1873-02-02 15:00:00 NR -13.8700 73.4353 main 1804 1766 _____P________ -1 -13.8700 73.4353 99 9 230
1873032S12076 1873 4 SI MM NOT_NAMED 1873-02-02 18:00:00 NR -14.1655 73.0814 main 1761 1708 _____P________ -1 -14.1655 73.0814 99 9 229
1873032S12076 1873 4 SI MM NOT_NAMED 1873-02-02 21:00:00 NR -14.4777 72.7173 main 1708 1664 _____P________ -1 -14.4777 72.7173 99 10 228
1873032S12076 1873 4 SI MM NOT_NAMED 1873-02-03 00:00:00 NR -14.8052 72.3466 main 1655 1612 _____P________ -1 -14.8052 72.3466 99 10 227
1873032S12076 1873 4 SI MM NOT_NAMED 1873-02-03 03:00:00 NR -15.1465 71.9730 main 1612 1555 _____P________ -1 -15.1465 71.9730 99 10 226
1873032S12076 1873 4 SI MM NOT_NAMED 1873-02-03 06:00:00 NR -15.5000 71.6000 reunion main 1555 1502 _____O________ -1 -15.5000 71.6000 99 9.90000 10 226
1873032S12076 1873 4 SI MM NOT_NAMED 1873-02-03 09:00:00 NR -15.8492 71.2287 main 1502 1456 _____P________ -1 -15.8492 71.2287 99 10 225
1873032S12076 1873 4 SI MM NOT_NAMED 1873-02-03 12:00:00 NR -16.2126 70.8536 main 1456 1401 _____P________ -1 -16.2126 70.8536 99 10 224
1873032S12076 1873 4 SI MM NOT_NAMED 1873-02-03 15:00:00 NR -16.5886 70.4779 main 1401 1347 _____P________ -1 -16.5886 70.4779 99 11 223
1873032S12076 1873 4 SI MM NOT_NAMED 1873-02-03 18:00:00 NR -16.9754 70.1047 main 1347 1306 _____P________ -1 -16.9754 70.1047 99 11 222
1873032S12076 1873 4 SI MM NOT_NAMED 1873-02-03 21:00:00 NR -17.3715 69.7371 main 1293 1250 _____P________ -1 -17.3715 69.7371 99 11 221
1873032S12076 1873 4 SI MM NOT_NAMED 1873-02-04 00:00:00 NR -17.7753 69.3783 main 1250 1209 _____P________ -1 -17.7753 69.3783 99 11 220
1873032S12076 1873 4 SI MM NOT_NAMED 1873-02-04 03:00:00 NR -18.1853 69.0315 main 1198 1158 _____P________ -1 -18.1853 69.0315 99 11 218
1873032S12076 1873 4 SI MM NOT_NAMED 1873-02-04 06:00:00 NR -18.6000 68.7000 reunion main 1158 1119 _____O________ -1 -18.6000 68.7000 99 9.90000 11 217
1873032S12076 1873 4 SI MM NOT_NAMED 1873-02-04 09:00:00 NR -19.0394 68.3606 main 1119 1080 _____P________ -1 -19.0394 68.3606 99 11 215
1873032S12076 1873 4 SI MM NOT_NAMED 1873-02-04 12:00:00 NR -19.4888 68.0322 main 1069 1034 _____P________ -1 -19.4888 68.0322 99 11 214
1873032S12076 1873 4 SI MM NOT_NAMED 1873-02-04 15:00:00 NR -19.9413 67.7184 main 1034 1000 _____P________ -1 -19.9413 67.7184 99 11 212
1873032S12076 1873 4 SI MM NOT_NAMED 1873-02-04 18:00:00 NR -20.3896 67.4227 main 1000 979 _____P________ -1 -20.3896 67.4227 99 10 211
1873032S12076 1873 4 SI MM NOT_NAMED 1873-02-04 21:00:00 NR -20.8267 67.1491 main 969 951 _____P________ -1 -20.8267 67.1491 99 10 210
1873032S12076 1873 4 SI MM NOT_NAMED 1873-02-05 00:00:00 NR -21.2456 66.9015 main 951 933 _____P________ -1 -21.2456 66.9015 99 9 208
1873032S12076 1873 4 SI MM NOT_NAMED 1873-02-05 03:00:00 NR -21.6390 66.6837 main 935 919 _____P________ -1 -21.6390 66.6837 99 8 206
1873032S12076 1873 4 SI MM NOT_NAMED 1873-02-05 06:00:00 NR -22.0000 66.5000 reunion main 921 913 _____O________ -1 -22.0000 66.5000 99 9.90000 7 205
1873032S12076 1873 4 SI MM NOT_NAMED 1873-02-05 09:00:00 NR -22.3064 66.3488 main 908 903 _____P________ -1 -22.3064 66.3488 99 6 203
1873032S12076 1873 4 SI MM NOT_NAMED 1873-02-05 12:00:00 NR -22.5814 66.2332 main 906 906 _____P________ -1 -22.5814 66.2332 99 6 200
1873032S12076 1873 4 SI MM NOT_NAMED 1873-02-05 15:00:00 NR -22.8310 66.1481 main 902 902 _____P________ -1 -22.8310 66.1481 99 5 195
1873032S12076 1873 4 SI MM NOT_NAMED 1873-02-05 18:00:00 NR -23.0609 66.0885 main 912 912 _____P________ -1 -23.0609 66.0885 99 5 191
1873032S12076 1873 4 SI MM NOT_NAMED 1873-02-05 21:00:00 NR -23.2770 66.0492 main 910 910 _____P________ -1 -23.2770 66.0492 99 4 188
1873032S12076 1873 4 SI MM NOT_NAMED 1873-02-06 00:00:00 NR -23.4850 66.0249 main 918 918 _____P________ -1 -23.4850 66.0249 99 4 184
1873032S12076 1873 4 SI MM NOT_NAMED 1873-02-06 03:00:00 NR -23.6908 66.0102 main 926 926 _____P________ -1 -23.6908 66.0102 99 4 0
1873032S12076 1873 4 SI MM NOT_NAMED 1873-02-06 06:00:00 NR -23.9000 66.0000 reunion main 934 934 _____O________ -1 -23.9000 66.0000 99 9.90000 4 188
1873032S12076 1873 4 SI MM NOT_NAMED 1873-02-06 09:00:00 NR -24.1183 65.9446 main 934 934 _____P________ -1 -24.1183 65.9446 99 4 192
1873032S12076 1873 4 SI MM NOT_NAMED 1873-02-06 12:00:00 NR -24.3342 65.8948 main 943 943 _____P________ -1 -24.3342 65.8948 99 4 190
1873032S12076 1873 4 SI MM NOT_NAMED 1873-02-06 15:00:00 NR -24.5517 65.8538 main 958 949 _____P________ -1 -24.5517 65.8538 99 4 189
1873032S12076 1873 4 SI MM NOT_NAMED 1873-02-06 18:00:00 NR -24.7747 65.8250 main 959 959 _____P________ -1 -24.7747 65.8250 99 5 184
1873032S12076 1873 4 SI MM NOT_NAMED 1873-02-06 21:00:00 NR -25.0071 65.8118 main 970 970 _____P________ -1 -25.0071 65.8118 99 5 0
1873032S12076 1873 4 SI MM NOT_NAMED 1873-02-07 00:00:00 NR -25.2528 65.8176 main 987 987 _____P________ -1 -25.2528 65.8176 99 5 176
1873032S12076 1873 4 SI MM NOT_NAMED 1873-02-07 03:00:00 NR -25.5158 65.8458 main 999 999 _____P________ -1 -25.5158 65.8458 99 6 172
1873032S12076 1873 4 SI MM NOT_NAMED 1873-02-07 06:00:00 NR -25.8000 65.9000 reunion main 1025 1025 _____O________ -1 -25.8000 65.9000 99 9.90000 6 170
1873032S12076 1873 4 SI MM NOT_NAMED 1873-02-07 09:00:00 NR -26.1290 65.9609 main 1052 1052 _____P________ -1 -26.1290 65.9609 99 7 169
1873032S12076 1873 4 SI MM NOT_NAMED 1873-02-07 12:00:00 NR -26.4807 66.0459 main 1078 1078 _____P________ -1 -26.4807 66.0459 99 7 166
1873032S12076 1873 4 SI MM NOT_NAMED 1873-02-07 15:00:00 NR -26.8486 66.1556 main 1114 1114 _____P________ -1 -26.8486 66.1556 99 8 163
1873032S12076 1873 4 SI MM NOT_NAMED 1873-02-07 18:00:00 NR -27.2260 66.2909 main 1150 1150 _____P________ -1 -27.2260 66.2909 99 8 161
1873032S12076 1873 4 SI MM NOT_NAMED 1873-02-07 21:00:00 NR -27.6065 66.4522 main 1193 1193 _____P________ -1 -27.6065 66.4522 99 8 158
1873032S12076 1873 4 SI MM NOT_NAMED 1873-02-08 00:00:00 NR -27.9834 66.6404 main 1230 1230 _____P________ -1 -27.9834 66.6404 99 8 154
1873032S12076 1873 4 SI MM NOT_NAMED 1873-02-08 03:00:00 NR -28.3501 66.8562 main 1281 1281 _____P________ -1 -28.3501 66.8562 99 8 151
1873032S12076 1873 4 SI MM NOT_NAMED 1873-02-08 06:00:00 NR -28.7000 67.1000 reunion main 1318 1318 _____O________ -1 -28.7000 67.1000 99 9.90000 8 146
1873032S12076 1873 4 SI MM NOT_NAMED 1873-02-08 09:00:00 NR -29.0354 67.3831 main 1362 1362 _____P________ -1 -29.0354 67.3831 99 8 141
1873032S12076 1873 4 SI MM NOT_NAMED 1873-02-08 12:00:00 NR -29.3592 67.7001 main 1414 1414 _____P________ -1 -29.3592 67.7001 99 9 138
1873032S12076 1873 4 SI MM NOT_NAMED 1873-02-08 15:00:00 NR -29.6686 68.0420 main 1458 1458 _____P________ -1 -29.6686 68.0420 99 9 135
1873032S12076 1873 4 SI MM NOT_NAMED 1873-02-08 18:00:00 NR -29.9605 68.3997 main 1509 1509 _____P________ -1 -29.9605 68.3997 99 8 132
1873032S12076 1873 4 SI MM NOT_NAMED 1873-02-08 21:00:00 NR -30.2323 68.7639 main 1552 1552 _____P________ -1 -30.2323 68.7639 99 8 130
1873032S12076 1873 4 SI MM NOT_NAMED 1873-02-09 00:00:00 NR -30.4812 69.1251 main 1596 1596 _____P________ -1 -30.4812 69.1251 99 8 128
1873032S12076 1873 4 SI MM NOT_NAMED 1873-02-09 03:00:00 NR -30.7046 69.4737 main 1639 1639 _____P________ -1 -30.7046 69.4737 99 7 126
1873032S12076 1873 4 SI MM NOT_NAMED 1873-02-09 06:00:00 NR -30.9000 69.8000 reunion main 1676 1676 _____O________ -1 -30.9000 69.8000 99 9.90000 6 124
1873032S12076 1873 4 SI MM NOT_NAMED 1873-02-09 09:00:00 NR -31.0660 70.0964 main 1712 1712 _____P________ -1 -31.0660 70.0964 99 6 122
1873032S12076 1873 4 SI MM NOT_NAMED 1873-02-09 12:00:00 NR -31.2056 70.3644 main 1741 1741 _____P________ -1 -31.2056 70.3644 99 5 120
1873032S12076 1873 4 SI MM NOT_NAMED 1873-02-09 15:00:00 NR -31.3225 70.6080 main 1762 1762 _____P________ -1 -31.3225 70.6080 99 5 118
1873032S12076 1873 4 SI MM NOT_NAMED 1873-02-09 18:00:00 NR -31.4207 70.8310 main 1784 1784 _____P________ -1 -31.4207 70.8310 99 4 116
1873032S12076 1873 4 SI MM NOT_NAMED 1873-02-09 21:00:00 NR -31.5037 71.0376 main 1806 1806 _____P________ -1 -31.5037 71.0376 99 4 114
1873032S12076 1873 4 SI MM NOT_NAMED 1873-02-10 00:00:00 NR -31.5755 71.2319 main 1827 1827 _____P________ -1 -31.5755 71.2319 99 4 113
1873032S12076 1873 4 SI MM NOT_NAMED 1873-02-10 03:00:00 NR -31.6397 71.4179 main 1842 1842 _____P________ -1 -31.6397 71.4179 99 3 112
1873032S12076 1873 4 SI MM NOT_NAMED 1873-02-10 06:00:00 NR -31.7000 71.6000 reunion main 1864 _____O________ -1 -31.7000 71.6000 99 9.90000 3 112

About IBTrACS Database

This database is a web-friendly format of International Best Track Archive for Climate Stewardship (IBTrACS), a global best track data archive curated by NOAA dating back to 1842.

Updated: 2021-12-03